Alsbach, Germany

1:54 PM CEST on August 29, 2014 (GMT +0200)
Deizisau | Change Station
CLOSE
Current Station
Personal Weather Station
Location: Deizisau, BADEN-WüRTTEMBERG
Elevation: 804 ft
Nearby Weather Stations

Elev 804 ft 48.71 °N, 9.38 °E | Updated 7 seconds ago

Scattered Clouds
Scattered Clouds
72.3 °F
Feels Like 75 °F
N
0.0
Wind Variable Wind from ESE
Gusts 0.0 mph

Today
High -- | Low -- °F
--% Chance of Precip.
Yesterday
High -- | Low -- °F
Precip. -- in
6:34 AM 8:11 PM
Waxing Crescent, 14% visible
Pressure 30.06 in
Visibility 6.2 miles
Clouds Scattered Clouds 3000 ft
Scattered Clouds 30000 ft
Heat Index 75 °F
Dew Point 60 °F
Humidity 66%
Rainfall 0.07 in
Snow Depth Not available.
UV 3.0 out of 12
Pollen Not available.
Air Quality Not available.
Flu Activity Not available.
METAR EDDS 291150Z 24004KT 210V270 9999 SCT030 SCT300 22/15 Q1018 NOSIG

More Conditions Fewer Conditions

Pressure 30.06 in
Visibility 6.2 miles
Clouds Scattered Clouds 3000 ft
Scattered Clouds 30000 ft
Heat Index 75 °F
Dew Point 60 °F
Humidity 66%
Rainfall 0.07 in
Snow Depth Not available.
UV 3.0 out of 12
Pollen Not available.
Air Quality Not available.
Flu Activity Not available.
METAR EDDS 291150Z 24004KT 210V270 9999 SCT030 SCT300 22/15 Q1018 NOSIG

More Conditions Fewer Conditions

10-Day Weather Forecast

Almanac

Astronomy

Aug. 29, 2014 Rise Set
Actual Time 6:34 AM CEST 8:11 PM CEST
Civil Twilight 6:01 AM CEST 8:43 PM CEST
Nautical Twilight 5:21 AM CEST 9:24 PM CEST
Astronomical Twilight 4:37 AM CEST 10:08 PM CEST
Moon 10:29 AM CEST 9:36 PM CEST
Length of Visible Light 14h 42m
Length of Day
13h 36m
Tomorrow will be 3m 26s shorter.
Waxing Crescent, 14% of the Moon is Illuminated
Today
Waxing Crescent
Sep 2
First Quarter
Sep 8
Full
Sep 15
Last Quarter
Sep 24
New

Yesterday's Extremes

Country Highs Country Lows

Community

WunderPhotos

Upload Photos

1,748,216 photos uploaded!

Nearby

Snow Depth

Not available.

Earthquake Activity

City Distance Mag. Time & Date
No recent earthquake activity has been reported nearby.
Minimum magnitude displayed is 2.5.

Coastal Water Temperatures

Place Temperature
No Stations Reporting

Nearby Weather Stations